Terminal Aerodrome Forecast
Issued by NWS

Current Version | Previous Version | Graphics & Text | Print | Product List | Glossary On
Versions: 1 2 3 4 5 6 7 8 9 10 11 12 13 14 15 16 17 18 19 20 21 22 23 24 25 26 27 28 29 30 31 32 33 34 35 36 37 38 39
000
FTUS41 KRNK 292334
TAFLWB
TAF
KLWB 292334Z 3000/3024 32004KT P6SM SCT040 BKN080
     FM300400 VRB03KT P6SM BKN040
     FM300800 27005KT 5SM BR SCT018 BKN030
      TEMPO 3009/3013 3SM BR BKN018
     FM301500 27005KT P6SM SCT027 BKN035
     FM301700 28006KT P6SM VCSH BKN035 BKN050=

USA.gov is the U.S. government's official web portal to all federal, state and local government web resources and services.